sensor_id;sensor_type;location;lat;lon;timestamp;P1;durP1;ratioP1;P2;durP2;ratioP2
5042;SDS011;2540;50.928;6.856;2023-07-31T00:00:11;5.07;;;3.07;;
5042;SDS011;2540;50.928;6.856;2023-07-31T00:02:37;3.90;;;2.40;;
5042;SDS011;2540;50.928;6.856;2023-07-31T00:05:02;15.40;;;2.77;;
5042;SDS011;2540;50.928;6.856;2023-07-31T00:07:28;7.97;;;2.47;;
5042;SDS011;2540;50.928;6.856;2023-07-31T00:09:53;6.63;;;2.70;;
5042;SDS011;2540;50.928;6.856;2023-07-31T00:12:19;7.60;;;2.97;;
5042;SDS011;2540;50.928;6.856;2023-07-31T00:14:45;6.83;;;2.80;;
5042;SDS011;2540;50.928;6.856;2023-07-31T00:17:10;5.83;;;2.47;;
5042;SDS011;2540;50.928;6.856;2023-07-31T00:19:36;6.67;;;2.73;;
5042;SDS011;2540;50.928;6.856;2023-07-31T00:22:01;9.33;;;3.20;;
5042;SDS011;2540;50.928;6.856;2023-07-31T00:24:27;10.83;;;3.37;;
5042;SDS011;2540;50.928;6.856;2023-07-31T00:26:52;6.77;;;3.00;;
5042;SDS011;2540;50.928;6.856;2023-07-31T00:29:18;9.43;;;2.50;;
5042;SDS011;2540;50.928;6.856;2023-07-31T00:31:43;4.17;;;2.30;;
5042;SDS011;2540;50.928;6.856;2023-07-31T00:34:09;8.23;;;3.27;;
5042;SDS011;2540;50.928;6.856;2023-07-31T00:36:34;9.80;;;2.77;;
5042;SDS011;2540;50.928;6.856;2023-07-31T00:38:59;4.27;;;3.17;;
5042;SDS011;2540;50.928;6.856;2023-07-31T00:41:25;10.37;;;2.83;;
5042;SDS011;2540;50.928;6.856;2023-07-31T00:43:50;6.13;;;2.80;;
5042;SDS011;2540;50.928;6.856;2023-07-31T00:46:15;14.87;;;2.87;;
5042;SDS011;2540;50.928;6.856;2023-07-31T00:48:40;5.13;;;2.10;;
5042;SDS011;2540;50.928;6.856;2023-07-31T00:51:07;2.90;;;2.30;;
5042;SDS011;2540;50.928;6.856;2023-07-31T00:53:32;4.57;;;2.27;;
5042;SDS011;2540;50.928;6.856;2023-07-31T00:55:58;6.40;;;2.70;;
5042;SDS011;2540;50.928;6.856;2023-07-31T00:58:24;3.37;;;2.40;;
5042;SDS011;2540;50.928;6.856;2023-07-31T01:00:49;3.87;;;2.20;;
5042;SDS011;2540;50.928;6.856;2023-07-31T01:03:15;3.70;;;2.43;;
5042;SDS011;2540;50.928;6.856;2023-07-31T01:08:24;4.43;;;2.43;;
5042;SDS011;2540;50.928;6.856;2023-07-31T01:10:56;5.43;;;2.00;;
5042;SDS011;2540;50.928;6.856;2023-07-31T01:13:41;5.30;;;2.20;;
5042;SDS011;2540;50.928;6.856;2023-07-31T01:16:07;10.70;;;3.40;;
5042;SDS011;2540;50.928;6.856;2023-07-31T01:18:33;5.17;;;2.80;;
5042;SDS011;2540;50.928;6.856;2023-07-31T01:21:03;4.50;;;2.90;;
5042;SDS011;2540;50.928;6.856;2023-07-31T01:23:41;4.70;;;2.10;;
5042;SDS011;2540;50.928;6.856;2023-07-31T01:28:56;6.70;;;2.33;;
5042;SDS011;2540;50.928;6.856;2023-07-31T01:31:29;6.57;;;2.10;;
5042;SDS011;2540;50.928;6.856;2023-07-31T01:33:56;5.33;;;2.33;;
5042;SDS011;2540;50.928;6.856;2023-07-31T01:36:23;5.80;;;2.13;;
5042;SDS011;2540;50.928;6.856;2023-07-31T01:38:48;4.73;;;2.27;;
5042;SDS011;2540;50.928;6.856;2023-07-31T01:41:16;8.07;;;2.40;;
5042;SDS011;2540;50.928;6.856;2023-07-31T01:43:45;3.70;;;2.47;;
5042;SDS011;2540;50.928;6.856;2023-07-31T01:46:11;4.00;;;2.30;;
5042;SDS011;2540;50.928;6.856;2023-07-31T01:48:36;7.67;;;2.37;;
5042;SDS011;2540;50.928;6.856;2023-07-31T01:51:02;6.60;;;1.83;;
5042;SDS011;2540;50.928;6.856;2023-07-31T01:53:28;9.70;;;2.60;;
5042;SDS011;2540;50.928;6.856;2023-07-31T01:55:53;14.00;;;3.23;;
5042;SDS011;2540;50.928;6.856;2023-07-31T01:58:19;4.20;;;2.60;;
5042;SDS011;2540;50.928;6.856;2023-07-31T02:00:44;5.47;;;2.47;;
5042;SDS011;2540;50.928;6.856;2023-07-31T02:03:09;4.97;;;2.73;;
5042;SDS011;2540;50.928;6.856;2023-07-31T02:05:35;4.63;;;2.30;;
5042;SDS011;2540;50.928;6.856;2023-07-31T02:08:00;5.87;;;2.40;;
5042;SDS011;2540;50.928;6.856;2023-07-31T02:10:25;4.23;;;2.40;;
5042;SDS011;2540;50.928;6.856;2023-07-31T02:12:51;6.80;;;2.93;;
5042;SDS011;2540;50.928;6.856;2023-07-31T02:15:16;9.10;;;2.70;;
5042;SDS011;2540;50.928;6.856;2023-07-31T02:17:41;4.80;;;2.30;;
5042;SDS011;2540;50.928;6.856;2023-07-31T02:20:07;5.43;;;2.63;;
5042;SDS011;2540;50.928;6.856;2023-07-31T02:22:32;10.33;;;2.53;;
5042;SDS011;2540;50.928;6.856;2023-07-31T02:24:58;7.63;;;2.40;;
5042;SDS011;2540;50.928;6.856;2023-07-31T02:27:23;7.00;;;2.40;;
5042;SDS011;2540;50.928;6.856;2023-07-31T02:29:52;9.03;;;3.27;;
5042;SDS011;2540;50.928;6.856;2023-07-31T02:32:17;7.07;;;2.77;;
5042;SDS011;2540;50.928;6.856;2023-07-31T02:34:42;7.80;;;3.03;;
5042;SDS011;2540;50.928;6.856;2023-07-31T02:37:08;11.60;;;3.20;;
5042;SDS011;2540;50.928;6.856;2023-07-31T02:39:33;4.40;;;2.53;;
5042;SDS011;2540;50.928;6.856;2023-07-31T02:41:59;3.93;;;2.17;;
5042;SDS011;2540;50.928;6.856;2023-07-31T02:44:25;10.30;;;2.90;;
5042;SDS011;2540;50.928;6.856;2023-07-31T02:46:50;8.40;;;3.20;;
5042;SDS011;2540;50.928;6.856;2023-07-31T02:49:16;5.17;;;2.33;;
5042;SDS011;2540;50.928;6.856;2023-07-31T02:51:41;8.07;;;2.37;;
5042;SDS011;2540;50.928;6.856;2023-07-31T02:54:06;7.17;;;2.40;;
5042;SDS011;2540;50.928;6.856;2023-07-31T02:56:31;3.50;;;2.40;;
5042;SDS011;2540;50.928;6.856;2023-07-31T02:58:57;6.43;;;2.80;;
5042;SDS011;2540;50.928;6.856;2023-07-31T03:01:22;3.70;;;2.50;;
5042;SDS011;2540;50.928;6.856;2023-07-31T03:03:47;5.30;;;2.40;;
5042;SDS011;2540;50.928;6.856;2023-07-31T03:06:13;6.23;;;2.40;;
5042;SDS011;2540;50.928;6.856;2023-07-31T03:08:38;6.97;;;2.70;;
5042;SDS011;2540;50.928;6.856;2023-07-31T03:11:03;5.90;;;3.20;;
5042;SDS011;2540;50.928;6.856;2023-07-31T03:13:29;5.57;;;2.30;;
5042;SDS011;2540;50.928;6.856;2023-07-31T03:15:54;5.63;;;2.53;;
5042;SDS011;2540;50.928;6.856;2023-07-31T03:18:19;5.03;;;2.80;;
5042;SDS011;2540;50.928;6.856;2023-07-31T03:20:44;4.93;;;2.00;;
5042;SDS011;2540;50.928;6.856;2023-07-31T03:23:10;7.33;;;2.97;;
5042;SDS011;2540;50.928;6.856;2023-07-31T03:25:35;6.80;;;2.63;;
5042;SDS011;2540;50.928;6.856;2023-07-31T03:28:00;3.47;;;2.50;;
5042;SDS011;2540;50.928;6.856;2023-07-31T03:30:26;8.13;;;2.73;;
5042;SDS011;2540;50.928;6.856;2023-07-31T03:32:51;9.80;;;2.80;;
5042;SDS011;2540;50.928;6.856;2023-07-31T03:35:17;8.63;;;3.00;;
5042;SDS011;2540;50.928;6.856;2023-07-31T03:37:42;7.83;;;2.80;;
5042;SDS011;2540;50.928;6.856;2023-07-31T03:40:07;6.20;;;2.40;;
5042;SDS011;2540;50.928;6.856;2023-07-31T03:42:33;8.90;;;3.13;;
5042;SDS011;2540;50.928;6.856;2023-07-31T03:44:59;11.10;;;3.60;;
5042;SDS011;2540;50.928;6.856;2023-07-31T03:47:24;4.93;;;2.60;;
5042;SDS011;2540;50.928;6.856;2023-07-31T03:49:49;8.00;;;2.87;;
5042;SDS011;2540;50.928;6.856;2023-07-31T03:52:15;4.17;;;2.60;;
5042;SDS011;2540;50.928;6.856;2023-07-31T03:54:40;11.70;;;2.87;;
5042;SDS011;2540;50.928;6.856;2023-07-31T03:57:06;20.47;;;3.10;;
5042;SDS011;2540;50.928;6.856;2023-07-31T03:59:31;6.40;;;3.10;;
5042;SDS011;2540;50.928;6.856;2023-07-31T04:01:56;4.80;;;2.80;;
5042;SDS011;2540;50.928;6.856;2023-07-31T04:04:22;9.03;;;3.50;;
5042;SDS011;2540;50.928;6.856;2023-07-31T04:06:47;7.03;;;3.50;;
5042;SDS011;2540;50.928;6.856;2023-07-31T04:09:12;6.60;;;3.10;;
5042;SDS011;2540;50.928;6.856;2023-07-31T04:11:37;7.30;;;3.30;;
5042;SDS011;2540;50.928;6.856;2023-07-31T04:14:04;5.67;;;3.03;;
5042;SDS011;2540;50.928;6.856;2023-07-31T04:16:29;5.10;;;2.70;;
5042;SDS011;2540;50.928;6.856;2023-07-31T04:18:55;6.13;;;2.60;;
5042;SDS011;2540;50.928;6.856;2023-07-31T04:21:20;7.70;;;3.60;;
5042;SDS011;2540;50.928;6.856;2023-07-31T04:23:45;6.67;;;3.20;;
5042;SDS011;2540;50.928;6.856;2023-07-31T04:26:11;6.03;;;3.30;;
5042;SDS011;2540;50.928;6.856;2023-07-31T04:28:36;10.43;;;4.10;;
5042;SDS011;2540;50.928;6.856;2023-07-31T04:31:01;9.13;;;3.87;;
5042;SDS011;2540;50.928;6.856;2023-07-31T04:33:27;7.93;;;3.13;;
5042;SDS011;2540;50.928;6.856;2023-07-31T04:35:52;9.83;;;3.43;;
5042;SDS011;2540;50.928;6.856;2023-07-31T04:38:19;5.77;;;2.90;;
5042;SDS011;2540;50.928;6.856;2023-07-31T04:40:45;5.60;;;3.00;;
5042;SDS011;2540;50.928;6.856;2023-07-31T04:43:10;7.33;;;3.30;;
5042;SDS011;2540;50.928;6.856;2023-07-31T04:45:35;7.23;;;3.30;;
5042;SDS011;2540;50.928;6.856;2023-07-31T04:48:00;6.70;;;3.00;;
5042;SDS011;2540;50.928;6.856;2023-07-31T04:50:26;10.03;;;3.17;;
5042;SDS011;2540;50.928;6.856;2023-07-31T04:52:51;5.67;;;3.60;;
5042;SDS011;2540;50.928;6.856;2023-07-31T04:55:16;6.73;;;3.20;;
5042;SDS011;2540;50.928;6.856;2023-07-31T04:57:42;5.03;;;3.30;;
5042;SDS011;2540;50.928;6.856;2023-07-31T05:00:07;4.83;;;2.90;;
5042;SDS011;2540;50.928;6.856;2023-07-31T05:02:33;11.67;;;3.53;;
5042;SDS011;2540;50.928;6.856;2023-07-31T05:04:58;4.93;;;3.00;;
5042;SDS011;2540;50.928;6.856;2023-07-31T05:07:23;3.93;;;2.70;;
5042;SDS011;2540;50.928;6.856;2023-07-31T05:09:49;5.70;;;2.97;;
5042;SDS011;2540;50.928;6.856;2023-07-31T05:12:14;7.27;;;3.60;;
5042;SDS011;2540;50.928;6.856;2023-07-31T05:14:39;8.47;;;2.87;;
5042;SDS011;2540;50.928;6.856;2023-07-31T05:17:05;5.83;;;3.40;;
5042;SDS011;2540;50.928;6.856;2023-07-31T05:19:30;13.40;;;3.13;;
5042;SDS011;2540;50.928;6.856;2023-07-31T05:21:56;8.33;;;3.03;;
5042;SDS011;2540;50.928;6.856;2023-07-31T05:24:21;4.10;;;2.50;;
5042;SDS011;2540;50.928;6.856;2023-07-31T05:26:46;5.77;;;3.27;;
5042;SDS011;2540;50.928;6.856;2023-07-31T05:29:12;5.60;;;3.07;;
5042;SDS011;2540;50.928;6.856;2023-07-31T05:31:37;4.20;;;2.43;;
5042;SDS011;2540;50.928;6.856;2023-07-31T05:34:03;8.83;;;2.93;;
5042;SDS011;2540;50.928;6.856;2023-07-31T05:36:29;7.80;;;3.20;;
5042;SDS011;2540;50.928;6.856;2023-07-31T05:38:54;4.60;;;3.30;;
5042;SDS011;2540;50.928;6.856;2023-07-31T05:41:19;7.97;;;3.20;;
5042;SDS011;2540;50.928;6.856;2023-07-31T05:43:44;10.53;;;3.33;;
5042;SDS011;2540;50.928;6.856;2023-07-31T05:46:10;3.47;;;2.47;;
5042;SDS011;2540;50.928;6.856;2023-07-31T05:48:36;8.10;;;2.70;;
5042;SDS011;2540;50.928;6.856;2023-07-31T05:51:02;4.83;;;2.93;;
5042;SDS011;2540;50.928;6.856;2023-07-31T05:53:27;6.07;;;3.10;;
5042;SDS011;2540;50.928;6.856;2023-07-31T05:55:53;5.87;;;3.10;;
5042;SDS011;2540;50.928;6.856;2023-07-31T05:58:18;9.00;;;2.40;;
5042;SDS011;2540;50.928;6.856;2023-07-31T06:00:43;5.17;;;3.13;;
5042;SDS011;2540;50.928;6.856;2023-07-31T06:03:09;7.33;;;2.67;;
5042;SDS011;2540;50.928;6.856;2023-07-31T06:05:34;8.17;;;2.90;;
5042;SDS011;2540;50.928;6.856;2023-07-31T06:07:59;5.67;;;3.17;;
5042;SDS011;2540;50.928;6.856;2023-07-31T06:10:25;5.47;;;2.70;;
5042;SDS011;2540;50.928;6.856;2023-07-31T06:12:51;5.33;;;3.00;;
5042;SDS011;2540;50.928;6.856;2023-07-31T06:15:16;8.13;;;3.37;;
5042;SDS011;2540;50.928;6.856;2023-07-31T06:17:44;5.70;;;2.77;;
5042;SDS011;2540;50.928;6.856;2023-07-31T06:20:09;5.73;;;2.87;;
5042;SDS011;2540;50.928;6.856;2023-07-31T06:22:35;8.20;;;3.07;;
5042;SDS011;2540;50.928;6.856;2023-07-31T06:25:00;6.93;;;2.90;;
5042;SDS011;2540;50.928;6.856;2023-07-31T06:27:26;5.27;;;2.73;;
5042;SDS011;2540;50.928;6.856;2023-07-31T06:29:51;4.40;;;2.50;;
5042;SDS011;2540;50.928;6.856;2023-07-31T06:32:16;5.83;;;3.00;;
5042;SDS011;2540;50.928;6.856;2023-07-31T06:34:42;3.23;;;2.40;;
5042;SDS011;2540;50.928;6.856;2023-07-31T06:37:07;9.83;;;3.67;;
5042;SDS011;2540;50.928;6.856;2023-07-31T06:39:32;7.20;;;3.03;;
5042;SDS011;2540;50.928;6.856;2023-07-31T06:41:57;7.20;;;2.70;;
5042;SDS011;2540;50.928;6.856;2023-07-31T06:44:23;6.13;;;3.13;;
5042;SDS011;2540;50.928;6.856;2023-07-31T06:46:48;7.10;;;2.60;;
5042;SDS011;2540;50.928;6.856;2023-07-31T06:49:13;5.07;;;3.00;;
5042;SDS011;2540;50.928;6.856;2023-07-31T06:51:40;11.53;;;3.50;;
5042;SDS011;2540;50.928;6.856;2023-07-31T06:54:05;6.83;;;2.47;;
5042;SDS011;2540;50.928;6.856;2023-07-31T06:56:31;5.53;;;3.07;;
5042;SDS011;2540;50.928;6.856;2023-07-31T06:58:56;4.17;;;2.50;;
5042;SDS011;2540;50.928;6.856;2023-07-31T07:01:21;5.27;;;2.40;;
5042;SDS011;2540;50.928;6.856;2023-07-31T07:03:47;8.17;;;2.80;;
5042;SDS011;2540;50.928;6.856;2023-07-31T07:06:12;5.10;;;3.00;;
5042;SDS011;2540;50.928;6.856;2023-07-31T07:08:37;6.47;;;3.33;;
5042;SDS011;2540;50.928;6.856;2023-07-31T07:11:02;6.47;;;3.17;;
5042;SDS011;2540;50.928;6.856;2023-07-31T07:13:28;6.00;;;2.67;;
5042;SDS011;2540;50.928;6.856;2023-07-31T07:15:53;5.00;;;2.87;;
5042;SDS011;2540;50.928;6.856;2023-07-31T07:18:19;12.67;;;2.90;;
5042;SDS011;2540;50.928;6.856;2023-07-31T07:20:46;7.17;;;3.37;;
5042;SDS011;2540;50.928;6.856;2023-07-31T07:23:15;5.30;;;2.67;;
5042;SDS011;2540;50.928;6.856;2023-07-31T07:25:40;4.70;;;3.40;;
5042;SDS011;2540;50.928;6.856;2023-07-31T07:28:05;7.93;;;3.20;;
5042;SDS011;2540;50.928;6.856;2023-07-31T07:30:31;11.03;;;3.63;;
5042;SDS011;2540;50.928;6.856;2023-07-31T07:32:56;4.93;;;2.53;;
5042;SDS011;2540;50.928;6.856;2023-07-31T07:35:21;5.53;;;3.10;;
5042;SDS011;2540;50.928;6.856;2023-07-31T07:37:48;5.07;;;3.13;;
5042;SDS011;2540;50.928;6.856;2023-07-31T07:40:15;3.43;;;2.50;;
5042;SDS011;2540;50.928;6.856;2023-07-31T07:42:40;8.40;;;3.37;;
5042;SDS011;2540;50.928;6.856;2023-07-31T07:45:06;6.10;;;2.87;;
5042;SDS011;2540;50.928;6.856;2023-07-31T07:47:32;5.07;;;2.60;;
5042;SDS011;2540;50.928;6.856;2023-07-31T07:49:57;6.60;;;2.70;;
5042;SDS011;2540;50.928;6.856;2023-07-31T07:52:22;6.43;;;2.53;;
5042;SDS011;2540;50.928;6.856;2023-07-31T07:54:48;6.47;;;2.47;;
5042;SDS011;2540;50.928;6.856;2023-07-31T07:57:13;4.50;;;2.30;;
5042;SDS011;2540;50.928;6.856;2023-07-31T07:59:38;7.50;;;2.50;;
5042;SDS011;2540;50.928;6.856;2023-07-31T08:02:05;7.77;;;2.40;;
5042;SDS011;2540;50.928;6.856;2023-07-31T08:04:30;6.43;;;2.97;;
5042;SDS011;2540;50.928;6.856;2023-07-31T08:06:56;4.90;;;2.23;;
5042;SDS011;2540;50.928;6.856;2023-07-31T08:09:21;2.57;;;1.87;;
5042;SDS011;2540;50.928;6.856;2023-07-31T08:11:46;3.37;;;2.77;;
5042;SDS011;2540;50.928;6.856;2023-07-31T08:14:11;4.33;;;2.00;;
5042;SDS011;2540;50.928;6.856;2023-07-31T08:16:37;4.67;;;2.33;;
5042;SDS011;2540;50.928;6.856;2023-07-31T08:19:03;4.63;;;2.43;;
5042;SDS011;2540;50.928;6.856;2023-07-31T08:21:28;4.93;;;2.40;;
5042;SDS011;2540;50.928;6.856;2023-07-31T08:23:54;8.33;;;2.73;;
5042;SDS011;2540;50.928;6.856;2023-07-31T08:26:20;5.20;;;3.17;;
5042;SDS011;2540;50.928;6.856;2023-07-31T08:28:45;6.40;;;2.50;;
5042;SDS011;2540;50.928;6.856;2023-07-31T08:31:14;4.90;;;2.53;;
5042;SDS011;2540;50.928;6.856;2023-07-31T08:33:39;4.90;;;2.77;;
5042;SDS011;2540;50.928;6.856;2023-07-31T08:36:05;4.00;;;2.13;;
5042;SDS011;2540;50.928;6.856;2023-07-31T08:38:31;4.10;;;2.27;;
5042;SDS011;2540;50.928;6.856;2023-07-31T08:40:57;6.63;;;2.67;;
5042;SDS011;2540;50.928;6.856;2023-07-31T08:43:22;3.73;;;2.13;;
5042;SDS011;2540;50.928;6.856;2023-07-31T08:45:50;5.10;;;2.03;;
5042;SDS011;2540;50.928;6.856;2023-07-31T08:48:16;3.73;;;2.30;;
5042;SDS011;2540;50.928;6.856;2023-07-31T08:50:42;2.13;;;1.93;;
5042;SDS011;2540;50.928;6.856;2023-07-31T08:53:07;2.50;;;1.60;;
5042;SDS011;2540;50.928;6.856;2023-07-31T08:55:32;3.47;;;2.00;;
5042;SDS011;2540;50.928;6.856;2023-07-31T08:57:58;3.60;;;1.83;;
5042;SDS011;2540;50.928;6.856;2023-07-31T09:00:25;3.07;;;1.90;;
5042;SDS011;2540;50.928;6.856;2023-07-31T09:05:28;4.50;;;2.43;;
5042;SDS011;2540;50.928;6.856;2023-07-31T09:07:54;2.40;;;1.70;;
5042;SDS011;2540;50.928;6.856;2023-07-31T09:10:20;4.70;;;2.30;;
5042;SDS011;2540;50.928;6.856;2023-07-31T09:12:45;5.03;;;2.20;;
5042;SDS011;2540;50.928;6.856;2023-07-31T09:15:11;3.13;;;2.10;;
5042;SDS011;2540;50.928;6.856;2023-07-31T09:17:37;5.63;;;2.50;;
5042;SDS011;2540;50.928;6.856;2023-07-31T09:20:18;6.33;;;2.50;;
5042;SDS011;2540;50.928;6.856;2023-07-31T09:22:45;4.20;;;1.97;;
5042;SDS011;2540;50.928;6.856;2023-07-31T09:27:50;2.47;;;1.53;;
5042;SDS011;2540;50.928;6.856;2023-07-31T09:30:17;3.47;;;2.00;;
5042;SDS011;2540;50.928;6.856;2023-07-31T09:32:43;3.77;;;2.10;;
5042;SDS011;2540;50.928;6.856;2023-07-31T09:37:55;5.63;;;2.60;;
5042;SDS011;2540;50.928;6.856;2023-07-31T09:43:00;3.23;;;1.87;;
5042;SDS011;2540;50.928;6.856;2023-07-31T09:45:30;5.13;;;2.50;;
5042;SDS011;2540;50.928;6.856;2023-07-31T09:47:59;3.47;;;1.90;;
5042;SDS011;2540;50.928;6.856;2023-07-31T09:50:24;3.63;;;2.07;;
5042;SDS011;2540;50.928;6.856;2023-07-31T09:52:50;7.43;;;2.67;;
5042;SDS011;2540;50.928;6.856;2023-07-31T09:55:16;5.20;;;2.30;;
5042;SDS011;2540;50.928;6.856;2023-07-31T09:57:43;3.87;;;1.80;;
5042;SDS011;2540;50.928;6.856;2023-07-31T10:00:11;11.20;;;2.03;;
5042;SDS011;2540;50.928;6.856;2023-07-31T10:02:38;4.40;;;2.00;;
5042;SDS011;2540;50.928;6.856;2023-07-31T10:05:04;5.80;;;2.30;;
5042;SDS011;2540;50.928;6.856;2023-07-31T10:07:30;5.77;;;1.70;;
5042;SDS011;2540;50.928;6.856;2023-07-31T10:09:57;4.00;;;1.80;;
5042;SDS011;2540;50.928;6.856;2023-07-31T10:12:25;5.20;;;1.77;;
5042;SDS011;2540;50.928;6.856;2023-07-31T10:14:54;7.47;;;3.00;;
5042;SDS011;2540;50.928;6.856;2023-07-31T10:17:20;4.63;;;2.30;;
5042;SDS011;2540;50.928;6.856;2023-07-31T10:19:46;4.60;;;1.90;;
5042;SDS011;2540;50.928;6.856;2023-07-31T10:22:13;2.50;;;1.90;;
5042;SDS011;2540;50.928;6.856;2023-07-31T10:24:38;3.53;;;2.10;;
5042;SDS011;2540;50.928;6.856;2023-07-31T10:27:04;5.10;;;2.10;;
5042;SDS011;2540;50.928;6.856;2023-07-31T10:29:30;5.73;;;2.40;;
5042;SDS011;2540;50.928;6.856;2023-07-31T10:31:56;5.07;;;2.30;;
5042;SDS011;2540;50.928;6.856;2023-07-31T10:34:22;4.30;;;2.33;;
5042;SDS011;2540;50.928;6.856;2023-07-31T10:36:48;4.30;;;1.90;;
5042;SDS011;2540;50.928;6.856;2023-07-31T10:41:59;7.13;;;1.80;;
5042;SDS011;2540;50.928;6.856;2023-07-31T10:44:24;2.60;;;1.70;;
5042;SDS011;2540;50.928;6.856;2023-07-31T10:46:49;5.20;;;1.50;;
5042;SDS011;2540;50.928;6.856;2023-07-31T10:49:20;3.13;;;1.90;;
5042;SDS011;2540;50.928;6.856;2023-07-31T10:51:46;3.80;;;1.70;;
5042;SDS011;2540;50.928;6.856;2023-07-31T10:54:13;9.97;;;1.77;;
5042;SDS011;2540;50.928;6.856;2023-07-31T10:56:40;5.47;;;1.97;;
5042;SDS011;2540;50.928;6.856;2023-07-31T10:59:05;3.93;;;1.50;;
5042;SDS011;2540;50.928;6.856;2023-07-31T11:01:49;1.43;;;1.33;;
5042;SDS011;2540;50.928;6.856;2023-07-31T11:04:15;3.27;;;1.70;;
5042;SDS011;2540;50.928;6.856;2023-07-31T11:06:57;2.10;;;1.47;;
5042;SDS011;2540;50.928;6.856;2023-07-31T11:09:29;1.97;;;1.20;;
5042;SDS011;2540;50.928;6.856;2023-07-31T11:11:55;2.00;;;1.40;;
5042;SDS011;2540;50.928;6.856;2023-07-31T11:14:20;2.70;;;1.20;;
5042;SDS011;2540;50.928;6.856;2023-07-31T11:16:46;7.67;;;1.17;;
5042;SDS011;2540;50.928;6.856;2023-07-31T11:19:14;1.70;;;1.30;;
5042;SDS011;2540;50.928;6.856;2023-07-31T11:21:40;1.03;;;0.93;;
5042;SDS011;2540;50.928;6.856;2023-07-31T11:24:05;1.10;;;1.00;;
5042;SDS011;2540;50.928;6.856;2023-07-31T11:26:30;1.27;;;1.00;;
5042;SDS011;2540;50.928;6.856;2023-07-31T11:28:56;1.70;;;1.10;;
5042;SDS011;2540;50.928;6.856;2023-07-31T11:31:21;0.80;;;0.70;;
5042;SDS011;2540;50.928;6.856;2023-07-31T11:33:47;2.07;;;1.10;;
5042;SDS011;2540;50.928;6.856;2023-07-31T11:36:20;1.93;;;1.00;;
5042;SDS011;2540;50.928;6.856;2023-07-31T11:38:45;1.20;;;0.90;;
5042;SDS011;2540;50.928;6.856;2023-07-31T11:41:13;2.00;;;1.13;;
5042;SDS011;2540;50.928;6.856;2023-07-31T11:43:39;1.50;;;1.10;;
5042;SDS011;2540;50.928;6.856;2023-07-31T11:46:04;1.53;;;1.00;;
5042;SDS011;2540;50.928;6.856;2023-07-31T11:48:32;6.60;;;1.07;;
5042;SDS011;2540;50.928;6.856;2023-07-31T11:51:03;1.00;;;0.80;;
5042;SDS011;2540;50.928;6.856;2023-07-31T11:53:50;0.80;;;0.70;;
5042;SDS011;2540;50.928;6.856;2023-07-31T11:56:17;1.33;;;0.90;;
5042;SDS011;2540;50.928;6.856;2023-07-31T11:58:43;0.93;;;0.80;;
5042;SDS011;2540;50.928;6.856;2023-07-31T12:01:10;2.77;;;1.23;;
5042;SDS011;2540;50.928;6.856;2023-07-31T12:03:36;1.33;;;1.00;;
5042;SDS011;2540;50.928;6.856;2023-07-31T12:06:02;1.00;;;0.77;;
5042;SDS011;2540;50.928;6.856;2023-07-31T12:08:27;1.47;;;1.20;;
5042;SDS011;2540;50.928;6.856;2023-07-31T12:10:53;1.77;;;1.30;;
5042;SDS011;2540;50.928;6.856;2023-07-31T12:13:20;2.80;;;1.00;;
5042;SDS011;2540;50.928;6.856;2023-07-31T12:15:47;1.40;;;1.00;;
5042;SDS011;2540;50.928;6.856;2023-07-31T12:18:13;1.10;;;1.00;;
5042;SDS011;2540;50.928;6.856;2023-07-31T12:20:43;3.00;;;1.07;;
5042;SDS011;2540;50.928;6.856;2023-07-31T12:23:13;4.33;;;1.30;;
5042;SDS011;2540;50.928;6.856;2023-07-31T12:25:40;1.83;;;1.33;;
5042;SDS011;2540;50.928;6.856;2023-07-31T12:28:05;1.50;;;1.20;;
5042;SDS011;2540;50.928;6.856;2023-07-31T12:30:36;3.60;;;1.40;;
5042;SDS011;2540;50.928;6.856;2023-07-31T12:33:12;2.10;;;1.33;;
5042;SDS011;2540;50.928;6.856;2023-07-31T12:35:40;1.90;;;1.37;;
5042;SDS011;2540;50.928;6.856;2023-07-31T12:38:07;2.73;;;1.50;;
5042;SDS011;2540;50.928;6.856;2023-07-31T12:40:32;1.67;;;1.23;;
5042;SDS011;2540;50.928;6.856;2023-07-31T12:43:00;1.43;;;1.30;;
5042;SDS011;2540;50.928;6.856;2023-07-31T12:45:27;2.60;;;1.70;;
5042;SDS011;2540;50.928;6.856;2023-07-31T12:47:52;12.20;;;1.83;;
5042;SDS011;2540;50.928;6.856;2023-07-31T12:50:18;2.87;;;1.70;;
5042;SDS011;2540;50.928;6.856;2023-07-31T12:52:43;4.20;;;2.10;;
5042;SDS011;2540;50.928;6.856;2023-07-31T12:55:08;4.83;;;2.10;;
5042;SDS011;2540;50.928;6.856;2023-07-31T12:57:35;4.47;;;2.33;;
5042;SDS011;2540;50.928;6.856;2023-07-31T13:00:01;4.00;;;2.33;;
5042;SDS011;2540;50.928;6.856;2023-07-31T13:02:26;2.47;;;1.73;;
5042;SDS011;2540;50.928;6.856;2023-07-31T13:04:52;3.77;;;2.00;;
5042;SDS011;2540;50.928;6.856;2023-07-31T13:07:19;2.63;;;1.57;;
5042;SDS011;2540;50.928;6.856;2023-07-31T13:09:44;2.07;;;1.57;;
5042;SDS011;2540;50.928;6.856;2023-07-31T13:12:10;2.53;;;1.93;;
5042;SDS011;2540;50.928;6.856;2023-07-31T13:14:35;5.20;;;1.90;;
5042;SDS011;2540;50.928;6.856;2023-07-31T13:17:00;3.97;;;2.07;;
5042;SDS011;2540;50.928;6.856;2023-07-31T13:19:25;2.70;;;1.90;;
5042;SDS011;2540;50.928;6.856;2023-07-31T13:21:51;4.10;;;2.10;;
5042;SDS011;2540;50.928;6.856;2023-07-31T13:24:16;3.70;;;2.00;;
5042;SDS011;2540;50.928;6.856;2023-07-31T13:26:42;4.30;;;2.07;;
5042;SDS011;2540;50.928;6.856;2023-07-31T13:29:07;3.80;;;2.17;;
5042;SDS011;2540;50.928;6.856;2023-07-31T13:31:32;5.10;;;2.33;;
5042;SDS011;2540;50.928;6.856;2023-07-31T13:33:58;2.60;;;1.70;;
5042;SDS011;2540;50.928;6.856;2023-07-31T13:36:23;2.50;;;1.60;;
5042;SDS011;2540;50.928;6.856;2023-07-31T13:38:48;3.00;;;1.63;;
5042;SDS011;2540;50.928;6.856;2023-07-31T13:41:14;3.40;;;1.67;;
5042;SDS011;2540;50.928;6.856;2023-07-31T13:43:39;4.90;;;1.93;;
5042;SDS011;2540;50.928;6.856;2023-07-31T13:46:06;2.77;;;1.60;;
5042;SDS011;2540;50.928;6.856;2023-07-31T13:48:35;2.87;;;1.83;;
5042;SDS011;2540;50.928;6.856;2023-07-31T13:51:01;2.33;;;1.83;;
5042;SDS011;2540;50.928;6.856;2023-07-31T13:53:26;2.23;;;1.50;;
5042;SDS011;2540;50.928;6.856;2023-07-31T13:55:51;2.73;;;1.57;;
5042;SDS011;2540;50.928;6.856;2023-07-31T13:58:17;2.63;;;1.73;;
5042;SDS011;2540;50.928;6.856;2023-07-31T14:00:42;3.03;;;1.90;;
5042;SDS011;2540;50.928;6.856;2023-07-31T14:03:08;3.30;;;1.90;;
5042;SDS011;2540;50.928;6.856;2023-07-31T14:05:33;4.43;;;2.13;;
5042;SDS011;2540;50.928;6.856;2023-07-31T14:07:58;2.17;;;1.63;;
5042;SDS011;2540;50.928;6.856;2023-07-31T14:10:24;2.67;;;1.80;;
5042;SDS011;2540;50.928;6.856;2023-07-31T14:12:49;2.97;;;2.00;;
5042;SDS011;2540;50.928;6.856;2023-07-31T14:15:14;2.60;;;1.90;;
5042;SDS011;2540;50.928;6.856;2023-07-31T14:17:40;3.43;;;1.77;;
5042;SDS011;2540;50.928;6.856;2023-07-31T14:20:05;2.80;;;1.80;;
5042;SDS011;2540;50.928;6.856;2023-07-31T14:22:31;2.20;;;1.53;;
5042;SDS011;2540;50.928;6.856;2023-07-31T14:24:58;3.23;;;1.90;;
5042;SDS011;2540;50.928;6.856;2023-07-31T14:27:23;2.70;;;1.70;;
5042;SDS011;2540;50.928;6.856;2023-07-31T14:29:49;3.70;;;1.93;;
5042;SDS011;2540;50.928;6.856;2023-07-31T14:32:14;4.37;;;2.10;;
5042;SDS011;2540;50.928;6.856;2023-07-31T14:34:39;3.00;;;1.90;;
5042;SDS011;2540;50.928;6.856;2023-07-31T14:37:05;4.33;;;1.90;;
5042;SDS011;2540;50.928;6.856;2023-07-31T14:39:30;3.67;;;1.90;;
5042;SDS011;2540;50.928;6.856;2023-07-31T14:41:55;3.60;;;2.50;;
5042;SDS011;2540;50.928;6.856;2023-07-31T14:44:21;2.63;;;2.00;;
5042;SDS011;2540;50.928;6.856;2023-07-31T14:46:46;3.30;;;2.10;;
5042;SDS011;2540;50.928;6.856;2023-07-31T14:49:11;4.20;;;2.77;;
5042;SDS011;2540;50.928;6.856;2023-07-31T14:51:37;4.53;;;2.63;;
5042;SDS011;2540;50.928;6.856;2023-07-31T14:54:02;4.20;;;2.93;;
5042;SDS011;2540;50.928;6.856;2023-07-31T14:56:27;4.17;;;2.43;;
5042;SDS011;2540;50.928;6.856;2023-07-31T14:58:53;6.67;;;2.40;;
5042;SDS011;2540;50.928;6.856;2023-07-31T15:01:18;4.50;;;2.60;;
5042;SDS011;2540;50.928;6.856;2023-07-31T15:03:43;3.63;;;2.37;;
5042;SDS011;2540;50.928;6.856;2023-07-31T15:06:09;5.70;;;2.67;;
5042;SDS011;2540;50.928;6.856;2023-07-31T15:08:34;5.93;;;2.67;;
5042;SDS011;2540;50.928;6.856;2023-07-31T15:11:01;3.00;;;2.30;;
5042;SDS011;2540;50.928;6.856;2023-07-31T15:13:26;3.33;;;2.40;;
5042;SDS011;2540;50.928;6.856;2023-07-31T15:15:51;5.43;;;2.63;;
5042;SDS011;2540;50.928;6.856;2023-07-31T15:18:17;3.23;;;2.50;;
5042;SDS011;2540;50.928;6.856;2023-07-31T15:20:42;4.40;;;2.47;;
5042;SDS011;2540;50.928;6.856;2023-07-31T15:23:07;4.97;;;3.00;;
5042;SDS011;2540;50.928;6.856;2023-07-31T15:25:39;3.73;;;2.63;;